sensor_id;sensor_type;location;lat;lon;timestamp;P1;durP1;ratioP1;P2;durP2;ratioP2
74612;SDS011;63119;51.788;8.824;2023-03-01T00:01:47;11.98;;;5.63;;
74612;SDS011;63119;51.788;8.824;2023-03-01T00:04:12;9.30;;;4.72;;
74612;SDS011;63119;51.788;8.824;2023-03-01T00:06:38;9.53;;;4.80;;
74612;SDS011;63119;51.788;8.824;2023-03-01T00:09:03;11.27;;;5.50;;
74612;SDS011;63119;51.788;8.824;2023-03-01T00:11:29;8.80;;;5.07;;
74612;SDS011;63119;51.788;8.824;2023-03-01T00:13:57;10.07;;;4.72;;
74612;SDS011;63119;51.788;8.824;2023-03-01T00:16:27;9.07;;;5.03;;
74612;SDS011;63119;51.788;8.824;2023-03-01T00:18:55;10.45;;;5.38;;
74612;SDS011;63119;51.788;8.824;2023-03-01T00:21:21;9.40;;;4.78;;
74612;SDS011;63119;51.788;8.824;2023-03-01T00:23:49;11.10;;;5.32;;
74612;SDS011;63119;51.788;8.824;2023-03-01T00:26:15;8.70;;;5.25;;
74612;SDS011;63119;51.788;8.824;2023-03-01T00:28:42;9.73;;;5.60;;
74612;SDS011;63119;51.788;8.824;2023-03-01T00:31:10;13.13;;;5.47;;
74612;SDS011;63119;51.788;8.824;2023-03-01T00:33:40;11.65;;;5.32;;
74612;SDS011;63119;51.788;8.824;2023-03-01T00:36:06;8.52;;;4.53;;
74612;SDS011;63119;51.788;8.824;2023-03-01T00:38:35;13.27;;;5.25;;
74612;SDS011;63119;51.788;8.824;2023-03-01T00:41:05;11.00;;;5.95;;
74612;SDS011;63119;51.788;8.824;2023-03-01T00:43:32;7.60;;;4.25;;
74612;SDS011;63119;51.788;8.824;2023-03-01T00:46:01;7.60;;;4.18;;
74612;SDS011;63119;51.788;8.824;2023-03-01T00:48:37;9.43;;;4.72;;
74612;SDS011;63119;51.788;8.824;2023-03-01T00:51:06;10.10;;;4.57;;
74612;SDS011;63119;51.788;8.824;2023-03-01T00:53:33;8.32;;;4.88;;
74612;SDS011;63119;51.788;8.824;2023-03-01T00:55:59;8.60;;;4.47;;
74612;SDS011;63119;51.788;8.824;2023-03-01T00:58:24;9.57;;;4.60;;
74612;SDS011;63119;51.788;8.824;2023-03-01T01:00:50;7.10;;;3.95;;
74612;SDS011;63119;51.788;8.824;2023-03-01T01:03:17;10.52;;;4.72;;
74612;SDS011;63119;51.788;8.824;2023-03-01T01:05:42;8.50;;;4.07;;
74612;SDS011;63119;51.788;8.824;2023-03-01T01:08:07;7.83;;;4.10;;
74612;SDS011;63119;51.788;8.824;2023-03-01T01:10:33;6.53;;;3.77;;
74612;SDS011;63119;51.788;8.824;2023-03-01T01:12:59;9.63;;;4.38;;
74612;SDS011;63119;51.788;8.824;2023-03-01T01:15:24;6.13;;;4.03;;
74612;SDS011;63119;51.788;8.824;2023-03-01T01:17:50;8.00;;;3.87;;
74612;SDS011;63119;51.788;8.824;2023-03-01T01:20:15;6.80;;;4.63;;
74612;SDS011;63119;51.788;8.824;2023-03-01T01:22:40;7.05;;;3.95;;
74612;SDS011;63119;51.788;8.824;2023-03-01T01:25:06;7.13;;;3.73;;
74612;SDS011;63119;51.788;8.824;2023-03-01T01:27:31;7.97;;;3.90;;
74612;SDS011;63119;51.788;8.824;2023-03-01T01:29:56;9.13;;;4.17;;
74612;SDS011;63119;51.788;8.824;2023-03-01T01:32:22;7.97;;;4.40;;
74612;SDS011;63119;51.788;8.824;2023-03-01T01:34:47;7.28;;;4.03;;
74612;SDS011;63119;51.788;8.824;2023-03-01T01:37:12;7.40;;;4.07;;
74612;SDS011;63119;51.788;8.824;2023-03-01T01:39:38;6.40;;;3.77;;
74612;SDS011;63119;51.788;8.824;2023-03-01T01:42:03;6.17;;;3.70;;
74612;SDS011;63119;51.788;8.824;2023-03-01T01:44:29;6.90;;;4.18;;
74612;SDS011;63119;51.788;8.824;2023-03-01T01:55:00;6.05;;;3.70;;
74612;SDS011;63119;51.788;8.824;2023-03-01T02:00:23;7.00;;;4.05;;
74612;SDS011;63119;51.788;8.824;2023-03-01T02:02:54;8.02;;;5.03;;
74612;SDS011;63119;51.788;8.824;2023-03-01T02:05:31;6.80;;;3.50;;
74612;SDS011;63119;51.788;8.824;2023-03-01T02:08:03;5.40;;;3.50;;
74612;SDS011;63119;51.788;8.824;2023-03-01T02:10:28;6.93;;;4.30;;
74612;SDS011;63119;51.788;8.824;2023-03-01T02:12:58;7.78;;;3.63;;
74612;SDS011;63119;51.788;8.824;2023-03-01T02:15:23;7.20;;;4.03;;
74612;SDS011;63119;51.788;8.824;2023-03-01T02:17:49;8.07;;;4.28;;
74612;SDS011;63119;51.788;8.824;2023-03-01T02:23:01;10.40;;;4.13;;
74612;SDS011;63119;51.788;8.824;2023-03-01T02:25:32;7.53;;;3.85;;
74612;SDS011;63119;51.788;8.824;2023-03-01T02:30:43;8.25;;;3.53;;
74612;SDS011;63119;51.788;8.824;2023-03-01T02:33:29;6.60;;;3.72;;
74612;SDS011;63119;51.788;8.824;2023-03-01T02:36:01;6.50;;;3.88;;
74612;SDS011;63119;51.788;8.824;2023-03-01T02:38:28;10.35;;;4.20;;
74612;SDS011;63119;51.788;8.824;2023-03-01T02:40:55;7.07;;;3.75;;
74612;SDS011;63119;51.788;8.824;2023-03-01T02:43:22;9.52;;;4.88;;
74612;SDS011;63119;51.788;8.824;2023-03-01T02:45:51;7.95;;;3.90;;
74612;SDS011;63119;51.788;8.824;2023-03-01T02:48:18;7.55;;;3.85;;
74612;SDS011;63119;51.788;8.824;2023-03-01T02:53:37;7.03;;;3.85;;
74612;SDS011;63119;51.788;8.824;2023-03-01T02:56:10;9.77;;;4.00;;
74612;SDS011;63119;51.788;8.824;2023-03-01T02:58:38;8.70;;;3.97;;
74612;SDS011;63119;51.788;8.824;2023-03-01T03:01:11;6.50;;;4.03;;
74612;SDS011;63119;51.788;8.824;2023-03-01T03:03:38;7.97;;;4.50;;
74612;SDS011;63119;51.788;8.824;2023-03-01T03:06:03;9.27;;;4.20;;
74612;SDS011;63119;51.788;8.824;2023-03-01T03:08:29;6.40;;;4.00;;
74612;SDS011;63119;51.788;8.824;2023-03-01T03:10:54;7.93;;;4.23;;
74612;SDS011;63119;51.788;8.824;2023-03-01T03:13:19;10.13;;;5.27;;
74612;SDS011;63119;51.788;8.824;2023-03-01T03:15:46;10.27;;;4.28;;
74612;SDS011;63119;51.788;8.824;2023-03-01T03:18:13;10.25;;;4.65;;
74612;SDS011;63119;51.788;8.824;2023-03-01T03:20:40;7.07;;;4.10;;
74612;SDS011;63119;51.788;8.824;2023-03-01T03:23:07;10.02;;;4.78;;
74612;SDS011;63119;51.788;8.824;2023-03-01T03:25:32;11.23;;;4.93;;
74612;SDS011;63119;51.788;8.824;2023-03-01T03:28:02;9.65;;;4.30;;
74612;SDS011;63119;51.788;8.824;2023-03-01T03:30:34;7.32;;;3.88;;
74612;SDS011;63119;51.788;8.824;2023-03-01T03:33:03;8.27;;;4.10;;
74612;SDS011;63119;51.788;8.824;2023-03-01T03:35:30;6.47;;;4.15;;
74612;SDS011;63119;51.788;8.824;2023-03-01T03:37:58;6.63;;;3.75;;
74612;SDS011;63119;51.788;8.824;2023-03-01T03:40:32;9.30;;;4.30;;
74612;SDS011;63119;51.788;8.824;2023-03-01T03:43:00;12.35;;;4.85;;
74612;SDS011;63119;51.788;8.824;2023-03-01T03:45:27;11.82;;;4.80;;
74612;SDS011;63119;51.788;8.824;2023-03-01T03:47:52;6.23;;;3.73;;
74612;SDS011;63119;51.788;8.824;2023-03-01T03:50:17;9.97;;;4.83;;
74612;SDS011;63119;51.788;8.824;2023-03-01T03:52:43;9.60;;;3.72;;
74612;SDS011;63119;51.788;8.824;2023-03-01T03:55:10;10.23;;;4.78;;
74612;SDS011;63119;51.788;8.824;2023-03-01T03:57:37;8.25;;;3.38;;
74612;SDS011;63119;51.788;8.824;2023-03-01T04:00:04;10.40;;;4.55;;
74612;SDS011;63119;51.788;8.824;2023-03-01T04:02:37;9.93;;;4.90;;
74612;SDS011;63119;51.788;8.824;2023-03-01T04:05:07;5.22;;;3.58;;
74612;SDS011;63119;51.788;8.824;2023-03-01T04:07:34;6.32;;;3.92;;
74612;SDS011;63119;51.788;8.824;2023-03-01T04:10:00;8.20;;;3.95;;
74612;SDS011;63119;51.788;8.824;2023-03-01T04:12:25;7.07;;;3.85;;
74612;SDS011;63119;51.788;8.824;2023-03-01T04:14:51;7.40;;;4.07;;
74612;SDS011;63119;51.788;8.824;2023-03-01T04:17:16;6.90;;;3.67;;
74612;SDS011;63119;51.788;8.824;2023-03-01T04:19:41;9.90;;;4.37;;
74612;SDS011;63119;51.788;8.824;2023-03-01T04:22:08;6.90;;;3.50;;
74612;SDS011;63119;51.788;8.824;2023-03-01T04:24:36;7.40;;;4.03;;
74612;SDS011;63119;51.788;8.824;2023-03-01T04:27:02;7.53;;;4.00;;
74612;SDS011;63119;51.788;8.824;2023-03-01T04:29:27;9.02;;;4.47;;
74612;SDS011;63119;51.788;8.824;2023-03-01T04:31:53;7.00;;;4.07;;
74612;SDS011;63119;51.788;8.824;2023-03-01T04:34:18;9.63;;;4.03;;
74612;SDS011;63119;51.788;8.824;2023-03-01T04:36:44;8.30;;;4.18;;
74612;SDS011;63119;51.788;8.824;2023-03-01T04:39:09;6.32;;;3.25;;
74612;SDS011;63119;51.788;8.824;2023-03-01T04:41:38;5.97;;;3.60;;
74612;SDS011;63119;51.788;8.824;2023-03-01T04:44:04;7.45;;;3.83;;
74612;SDS011;63119;51.788;8.824;2023-03-01T04:46:29;7.88;;;4.20;;
74612;SDS011;63119;51.788;8.824;2023-03-01T04:48:55;8.03;;;4.37;;
74612;SDS011;63119;51.788;8.824;2023-03-01T04:51:20;7.00;;;4.07;;
74612;SDS011;63119;51.788;8.824;2023-03-01T04:53:45;8.93;;;4.07;;
74612;SDS011;63119;51.788;8.824;2023-03-01T04:56:12;7.90;;;4.68;;
74612;SDS011;63119;51.788;8.824;2023-03-01T04:58:38;7.25;;;4.07;;
74612;SDS011;63119;51.788;8.824;2023-03-01T05:01:11;6.32;;;4.10;;
74612;SDS011;63119;51.788;8.824;2023-03-01T05:03:44;7.07;;;3.75;;
74612;SDS011;63119;51.788;8.824;2023-03-01T05:06:11;9.18;;;4.20;;
74612;SDS011;63119;51.788;8.824;2023-03-01T05:08:37;10.23;;;3.90;;
74612;SDS011;63119;51.788;8.824;2023-03-01T05:11:04;6.95;;;3.55;;
74612;SDS011;63119;51.788;8.824;2023-03-01T05:13:30;7.95;;;4.13;;
74612;SDS011;63119;51.788;8.824;2023-03-01T05:15:56;8.47;;;4.73;;
74612;SDS011;63119;51.788;8.824;2023-03-01T05:18:23;11.35;;;4.60;;
74612;SDS011;63119;51.788;8.824;2023-03-01T05:20:50;8.23;;;4.45;;
74612;SDS011;63119;51.788;8.824;2023-03-01T05:23:21;7.93;;;4.25;;
74612;SDS011;63119;51.788;8.824;2023-03-01T05:25:47;9.10;;;4.35;;
74612;SDS011;63119;51.788;8.824;2023-03-01T05:28:13;9.35;;;5.25;;
74612;SDS011;63119;51.788;8.824;2023-03-01T05:30:39;8.70;;;4.95;;
74612;SDS011;63119;51.788;8.824;2023-03-01T05:33:04;9.60;;;4.85;;
74612;SDS011;63119;51.788;8.824;2023-03-01T05:35:32;10.17;;;5.20;;
74612;SDS011;63119;51.788;8.824;2023-03-01T05:37:58;8.65;;;4.63;;
74612;SDS011;63119;51.788;8.824;2023-03-01T05:40:23;11.17;;;5.10;;
74612;SDS011;63119;51.788;8.824;2023-03-01T05:42:51;9.93;;;4.63;;
74612;SDS011;63119;51.788;8.824;2023-03-01T05:45:19;11.57;;;4.80;;
74612;SDS011;63119;51.788;8.824;2023-03-01T05:47:46;8.00;;;4.72;;
74612;SDS011;63119;51.788;8.824;2023-03-01T05:50:17;9.13;;;4.47;;
74612;SDS011;63119;51.788;8.824;2023-03-01T05:52:51;11.90;;;4.82;;
74612;SDS011;63119;51.788;8.824;2023-03-01T05:55:21;9.93;;;4.95;;
74612;SDS011;63119;51.788;8.824;2023-03-01T05:57:47;9.23;;;5.00;;
74612;SDS011;63119;51.788;8.824;2023-03-01T06:00:13;8.75;;;4.78;;
74612;SDS011;63119;51.788;8.824;2023-03-01T06:02:40;12.27;;;5.40;;
74612;SDS011;63119;51.788;8.824;2023-03-01T06:05:07;10.13;;;4.55;;
74612;SDS011;63119;51.788;8.824;2023-03-01T06:07:34;9.52;;;5.00;;
74612;SDS011;63119;51.788;8.824;2023-03-01T06:09:59;9.52;;;5.05;;
74612;SDS011;63119;51.788;8.824;2023-03-01T06:12:25;9.40;;;5.03;;
74612;SDS011;63119;51.788;8.824;2023-03-01T06:14:50;9.90;;;4.60;;
74612;SDS011;63119;51.788;8.824;2023-03-01T06:17:15;8.67;;;4.60;;
74612;SDS011;63119;51.788;8.824;2023-03-01T06:19:41;8.73;;;4.37;;
74612;SDS011;63119;51.788;8.824;2023-03-01T06:22:06;9.13;;;4.83;;
74612;SDS011;63119;51.788;8.824;2023-03-01T06:24:31;8.77;;;4.28;;
74612;SDS011;63119;51.788;8.824;2023-03-01T06:26:58;6.07;;;3.88;;
74612;SDS011;63119;51.788;8.824;2023-03-01T06:29:23;9.80;;;4.83;;
74612;SDS011;63119;51.788;8.824;2023-03-01T06:31:48;6.53;;;4.13;;
74612;SDS011;63119;51.788;8.824;2023-03-01T06:34:14;7.65;;;4.78;;
74612;SDS011;63119;51.788;8.824;2023-03-01T06:36:39;9.77;;;4.60;;
74612;SDS011;63119;51.788;8.824;2023-03-01T06:39:05;8.52;;;4.97;;
74612;SDS011;63119;51.788;8.824;2023-03-01T06:41:31;12.15;;;5.15;;
74612;SDS011;63119;51.788;8.824;2023-03-01T06:43:57;9.63;;;4.97;;
74612;SDS011;63119;51.788;8.824;2023-03-01T06:46:23;8.88;;;4.97;;
74612;SDS011;63119;51.788;8.824;2023-03-01T06:48:49;8.27;;;5.10;;
74612;SDS011;63119;51.788;8.824;2023-03-01T06:51:14;8.47;;;4.53;;
74612;SDS011;63119;51.788;8.824;2023-03-01T06:53:39;8.00;;;4.97;;
74612;SDS011;63119;51.788;8.824;2023-03-01T06:56:04;6.70;;;4.23;;
74612;SDS011;63119;51.788;8.824;2023-03-01T06:58:30;8.55;;;5.20;;
74612;SDS011;63119;51.788;8.824;2023-03-01T07:00:55;9.60;;;4.67;;
74612;SDS011;63119;51.788;8.824;2023-03-01T07:03:20;8.63;;;5.10;;
74612;SDS011;63119;51.788;8.824;2023-03-01T07:05:48;10.17;;;5.47;;
74612;SDS011;63119;51.788;8.824;2023-03-01T07:08:14;9.52;;;5.05;;
74612;SDS011;63119;51.788;8.824;2023-03-01T07:10:39;9.50;;;5.17;;
74612;SDS011;63119;51.788;8.824;2023-03-01T07:13:04;10.30;;;5.77;;
74612;SDS011;63119;51.788;8.824;2023-03-01T07:15:31;9.57;;;5.53;;
74612;SDS011;63119;51.788;8.824;2023-03-01T07:17:57;11.57;;;5.47;;
74612;SDS011;63119;51.788;8.824;2023-03-01T07:20:23;9.90;;;5.70;;
74612;SDS011;63119;51.788;8.824;2023-03-01T07:22:50;10.13;;;5.70;;
74612;SDS011;63119;51.788;8.824;2023-03-01T07:25:16;8.60;;;4.88;;
74612;SDS011;63119;51.788;8.824;2023-03-01T07:27:42;11.88;;;6.07;;
74612;SDS011;63119;51.788;8.824;2023-03-01T07:30:07;11.73;;;5.80;;
74612;SDS011;63119;51.788;8.824;2023-03-01T07:32:33;11.65;;;6.07;;
74612;SDS011;63119;51.788;8.824;2023-03-01T07:34:58;9.53;;;5.63;;
74612;SDS011;63119;51.788;8.824;2023-03-01T07:37:23;8.13;;;5.70;;
74612;SDS011;63119;51.788;8.824;2023-03-01T07:39:49;9.50;;;5.50;;
74612;SDS011;63119;51.788;8.824;2023-03-01T07:42:14;8.70;;;5.07;;
74612;SDS011;63119;51.788;8.824;2023-03-01T07:44:39;12.47;;;5.70;;
74612;SDS011;63119;51.788;8.824;2023-03-01T07:47:05;11.30;;;5.70;;
74612;SDS011;63119;51.788;8.824;2023-03-01T07:49:30;8.27;;;5.03;;
74612;SDS011;63119;51.788;8.824;2023-03-01T07:51:55;8.07;;;5.60;;
74612;SDS011;63119;51.788;8.824;2023-03-01T07:54:21;10.88;;;6.28;;
74612;SDS011;63119;51.788;8.824;2023-03-01T07:56:47;10.73;;;5.60;;
74612;SDS011;63119;51.788;8.824;2023-03-01T07:59:12;11.57;;;5.87;;
74612;SDS011;63119;51.788;8.824;2023-03-01T08:01:37;8.80;;;5.67;;
74612;SDS011;63119;51.788;8.824;2023-03-01T08:04:02;11.23;;;6.30;;
74612;SDS011;63119;51.788;8.824;2023-03-01T08:06:29;11.75;;;5.55;;
74612;SDS011;63119;51.788;8.824;2023-03-01T08:08:54;10.90;;;5.63;;
74612;SDS011;63119;51.788;8.824;2023-03-01T08:11:23;11.57;;;6.30;;
74612;SDS011;63119;51.788;8.824;2023-03-01T08:13:48;9.40;;;5.43;;
74612;SDS011;63119;51.788;8.824;2023-03-01T08:16:14;10.70;;;5.60;;
74612;SDS011;63119;51.788;8.824;2023-03-01T08:18:40;8.80;;;5.53;;
74612;SDS011;63119;51.788;8.824;2023-03-01T08:21:10;9.30;;;5.50;;
74612;SDS011;63119;51.788;8.824;2023-03-01T08:23:39;7.10;;;3.83;;
74612;SDS011;63119;51.788;8.824;2023-03-01T08:26:06;7.05;;;4.50;;
74612;SDS011;63119;51.788;8.824;2023-03-01T08:28:42;7.57;;;4.88;;
74612;SDS011;63119;51.788;8.824;2023-03-01T08:31:21;8.75;;;4.80;;
74612;SDS011;63119;51.788;8.824;2023-03-01T08:33:49;7.82;;;3.88;;
74612;SDS011;63119;51.788;8.824;2023-03-01T08:36:20;8.38;;;4.40;;
74612;SDS011;63119;51.788;8.824;2023-03-01T08:38:46;8.48;;;4.25;;
74612;SDS011;63119;51.788;8.824;2023-03-01T08:41:11;7.20;;;3.57;;
74612;SDS011;63119;51.788;8.824;2023-03-01T08:43:36;7.57;;;4.23;;
74612;SDS011;63119;51.788;8.824;2023-03-01T08:46:02;10.37;;;4.13;;
74612;SDS011;63119;51.788;8.824;2023-03-01T08:48:27;10.00;;;4.67;;
74612;SDS011;63119;51.788;8.824;2023-03-01T08:50:53;8.32;;;4.13;;
74612;SDS011;63119;51.788;8.824;2023-03-01T08:53:19;7.05;;;3.63;;
74612;SDS011;63119;51.788;8.824;2023-03-01T08:55:44;8.70;;;5.00;;
74612;SDS011;63119;51.788;8.824;2023-03-01T08:58:09;6.10;;;3.50;;
74612;SDS011;63119;51.788;8.824;2023-03-01T09:00:35;7.07;;;4.00;;
74612;SDS011;63119;51.788;8.824;2023-03-01T09:03:00;8.93;;;4.13;;
74612;SDS011;63119;51.788;8.824;2023-03-01T09:05:26;8.70;;;4.10;;
74612;SDS011;63119;51.788;8.824;2023-03-01T09:07:51;8.67;;;4.37;;
74612;SDS011;63119;51.788;8.824;2023-03-01T09:10:16;6.13;;;3.50;;
74612;SDS011;63119;51.788;8.824;2023-03-01T09:12:42;7.30;;;3.90;;
74612;SDS011;63119;51.788;8.824;2023-03-01T09:15:07;7.47;;;4.10;;
74612;SDS011;63119;51.788;8.824;2023-03-01T09:17:33;9.05;;;4.85;;
74612;SDS011;63119;51.788;8.824;2023-03-01T09:19:58;8.13;;;4.03;;
74612;SDS011;63119;51.788;8.824;2023-03-01T09:22:24;8.88;;;4.25;;
74612;SDS011;63119;51.788;8.824;2023-03-01T09:24:50;7.88;;;4.30;;
74612;SDS011;63119;51.788;8.824;2023-03-01T09:27:15;6.83;;;4.30;;
74612;SDS011;63119;51.788;8.824;2023-03-01T09:32:08;7.17;;;3.97;;
74612;SDS011;63119;51.788;8.824;2023-03-01T09:34:34;9.77;;;4.13;;
74612;SDS011;63119;51.788;8.824;2023-03-01T09:37:19;9.30;;;4.22;;
74612;SDS011;63119;51.788;8.824;2023-03-01T09:39:44;7.32;;;3.97;;
74612;SDS011;63119;51.788;8.824;2023-03-01T09:42:10;8.77;;;4.30;;
74612;SDS011;63119;51.788;8.824;2023-03-01T09:44:38;8.68;;;4.10;;
74612;SDS011;63119;51.788;8.824;2023-03-01T09:47:11;8.23;;;4.20;;
74612;SDS011;63119;51.788;8.824;2023-03-01T09:49:42;9.98;;;3.63;;
74612;SDS011;63119;51.788;8.824;2023-03-01T09:54:58;7.53;;;3.80;;
74612;SDS011;63119;51.788;8.824;2023-03-01T09:57:28;9.47;;;4.17;;
74612;SDS011;63119;51.788;8.824;2023-03-01T10:02:37;8.98;;;4.18;;
74612;SDS011;63119;51.788;8.824;2023-03-01T10:05:12;10.13;;;4.00;;
74612;SDS011;63119;51.788;8.824;2023-03-01T10:07:46;9.32;;;4.65;;
74612;SDS011;63119;51.788;8.824;2023-03-01T10:10:26;7.43;;;3.88;;
74612;SDS011;63119;51.788;8.824;2023-03-01T10:12:55;7.65;;;3.50;;
74612;SDS011;63119;51.788;8.824;2023-03-01T10:15:35;8.43;;;3.65;;
74612;SDS011;63119;51.788;8.824;2023-03-01T10:18:12;6.20;;;3.63;;
74612;SDS011;63119;51.788;8.824;2023-03-01T10:20:46;7.20;;;4.05;;
74612;SDS011;63119;51.788;8.824;2023-03-01T10:23:17;8.15;;;4.35;;
74612;SDS011;63119;51.788;8.824;2023-03-01T10:25:44;7.60;;;4.67;;
74612;SDS011;63119;51.788;8.824;2023-03-01T10:28:33;7.50;;;3.50;;
74612;SDS011;63119;51.788;8.824;2023-03-01T10:31:11;8.20;;;4.22;;
74612;SDS011;63119;51.788;8.824;2023-03-01T10:33:39;7.72;;;3.40;;
74612;SDS011;63119;51.788;8.824;2023-03-01T10:36:06;8.95;;;3.92;;
74612;SDS011;63119;51.788;8.824;2023-03-01T10:38:46;7.55;;;3.88;;
74612;SDS011;63119;51.788;8.824;2023-03-01T10:41:13;7.20;;;3.80;;
74612;SDS011;63119;51.788;8.824;2023-03-01T10:46:34;7.25;;;3.72;;
74612;SDS011;63119;51.788;8.824;2023-03-01T10:49:15;10.40;;;4.18;;
74612;SDS011;63119;51.788;8.824;2023-03-01T10:51:45;12.23;;;4.90;;
74612;SDS011;63119;51.788;8.824;2023-03-01T10:54:17;7.47;;;4.18;;
74612;SDS011;63119;51.788;8.824;2023-03-01T10:56:56;10.27;;;4.03;;
74612;SDS011;63119;51.788;8.824;2023-03-01T10:59:33;9.23;;;4.50;;
74612;SDS011;63119;51.788;8.824;2023-03-01T11:02:11;7.57;;;4.25;;
74612;SDS011;63119;51.788;8.824;2023-03-01T11:04:55;8.27;;;4.30;;
74612;SDS011;63119;51.788;8.824;2023-03-01T11:07:22;7.35;;;3.72;;
74612;SDS011;63119;51.788;8.824;2023-03-01T11:09:47;8.17;;;3.93;;
74612;SDS011;63119;51.788;8.824;2023-03-01T11:12:13;8.83;;;3.83;;
74612;SDS011;63119;51.788;8.824;2023-03-01T11:14:46;8.93;;;5.00;;
74612;SDS011;63119;51.788;8.824;2023-03-01T11:17:36;7.07;;;4.40;;
74612;SDS011;63119;51.788;8.824;2023-03-01T11:22:37;6.80;;;4.38;;
74612;SDS011;63119;51.788;8.824;2023-03-01T11:25:11;8.32;;;4.10;;
74612;SDS011;63119;51.788;8.824;2023-03-01T11:27:40;7.13;;;4.03;;
74612;SDS011;63119;51.788;8.824;2023-03-01T11:30:20;8.00;;;3.90;;
74612;SDS011;63119;51.788;8.824;2023-03-01T11:32:52;6.55;;;3.60;;
74612;SDS011;63119;51.788;8.824;2023-03-01T11:35:42;7.28;;;3.90;;
74612;SDS011;63119;51.788;8.824;2023-03-01T11:38:16;7.63;;;3.90;;
74612;SDS011;63119;51.788;8.824;2023-03-01T11:40:47;7.68;;;3.38;;
74612;SDS011;63119;51.788;8.824;2023-03-01T11:46:22;7.10;;;3.72;;
74612;SDS011;63119;51.788;8.824;2023-03-01T11:49:21;6.93;;;3.88;;
74612;SDS011;63119;51.788;8.824;2023-03-01T11:52:05;5.95;;;3.53;;
74612;SDS011;63119;51.788;8.824;2023-03-01T11:54:58;8.05;;;3.90;;
74612;SDS011;63119;51.788;8.824;2023-03-01T12:00:39;5.57;;;3.08;;
74612;SDS011;63119;51.788;8.824;2023-03-01T12:03:25;6.50;;;3.08;;
74612;SDS011;63119;51.788;8.824;2023-03-01T12:11:41;5.25;;;3.33;;
74612;SDS011;63119;51.788;8.824;2023-03-01T12:25:28;6.90;;;3.67;;
74612;SDS011;63119;51.788;8.824;2023-03-01T12:30:54;7.95;;;3.35;;
74612;SDS011;63119;51.788;8.824;2023-03-01T12:33:40;5.97;;;3.30;;
74612;SDS011;63119;51.788;8.824;2023-03-01T12:42:15;8.00;;;3.50;;
74612;SDS011;63119;51.788;8.824;2023-03-01T12:50:44;8.98;;;4.32;;
74612;SDS011;63119;51.788;8.824;2023-03-01T12:53:30;6.90;;;3.63;;
74612;SDS011;63119;51.788;8.824;2023-03-01T12:56:00;9.88;;;4.15;;
74612;SDS011;63119;51.788;8.824;2023-03-01T12:58:32;9.10;;;3.72;;
74612;SDS011;63119;51.788;8.824;2023-03-01T13:09:31;7.28;;;3.63;;
74612;SDS011;63119;51.788;8.824;2023-03-01T13:12:04;7.30;;;3.92;;
74612;SDS011;63119;51.788;8.824;2023-03-01T13:17:50;10.05;;;4.03;;
74612;SDS011;63119;51.788;8.824;2023-03-01T13:20:21;7.88;;;4.00;;
74612;SDS011;63119;51.788;8.824;2023-03-01T13:23:00;6.75;;;3.80;;
74612;SDS011;63119;51.788;8.824;2023-03-01T13:25:29;8.63;;;4.00;;
74612;SDS011;63119;51.788;8.824;2023-03-01T13:28:32;6.37;;;3.23;;
74612;SDS011;63119;51.788;8.824;2023-03-01T13:30:58;5.82;;;3.10;;
74612;SDS011;63119;51.788;8.824;2023-03-01T13:35:52;6.55;;;3.80;;
74612;SDS011;63119;51.788;8.824;2023-03-01T13:41:02;8.88;;;3.35;;
74612;SDS011;63119;51.788;8.824;2023-03-01T13:43:32;5.78;;;3.50;;
74612;SDS011;63119;51.788;8.824;2023-03-01T13:46:00;7.18;;;3.25;;
74612;SDS011;63119;51.788;8.824;2023-03-01T13:48:32;6.90;;;3.72;;
74612;SDS011;63119;51.788;8.824;2023-03-01T13:51:08;6.80;;;3.85;;
74612;SDS011;63119;51.788;8.824;2023-03-01T13:53:37;5.95;;;3.67;;
74612;SDS011;63119;51.788;8.824;2023-03-01T13:56:08;7.10;;;3.88;;
74612;SDS011;63119;51.788;8.824;2023-03-01T14:01:21;7.65;;;3.88;;
74612;SDS011;63119;51.788;8.824;2023-03-01T14:03:57;7.93;;;4.10;;
74612;SDS011;63119;51.788;8.824;2023-03-01T14:06:26;9.75;;;4.32;;
74612;SDS011;63119;51.788;8.824;2023-03-01T14:09:05;9.48;;;4.55;;
74612;SDS011;63119;51.788;8.824;2023-03-01T14:19:45;7.13;;;4.05;;
74612;SDS011;63119;51.788;8.824;2023-03-01T14:22:16;8.77;;;4.22;;
74612;SDS011;63119;51.788;8.824;2023-03-01T14:24:47;7.38;;;4.03;;
74612;SDS011;63119;51.788;8.824;2023-03-01T14:27:16;12.65;;;4.60;;
74612;SDS011;63119;51.788;8.824;2023-03-01T14:29:42;8.80;;;4.40;;
74612;SDS011;63119;51.788;8.824;2023-03-01T14:32:30;8.27;;;4.32;;
74612;SDS011;63119;51.788;8.824;2023-03-01T14:34:55;7.03;;;4.28;;
74612;SDS011;63119;51.788;8.824;2023-03-01T14:37:23;9.55;;;4.63;;
74612;SDS011;63119;51.788;8.824;2023-03-01T14:39:55;8.02;;;3.90;;
74612;SDS011;63119;51.788;8.824;2023-03-01T14:42:22;8.85;;;4.47;;
74612;SDS011;63119;51.788;8.824;2023-03-01T14:44:51;7.55;;;4.10;;
74612;SDS011;63119;51.788;8.824;2023-03-01T14:49:49;8.15;;;4.30;;
74612;SDS011;63119;51.788;8.824;2023-03-01T14:52:21;8.77;;;4.47;;
74612;SDS011;63119;51.788;8.824;2023-03-01T14:54:48;8.00;;;4.38;;
74612;SDS011;63119;51.788;8.824;2023-03-01T14:57:19;9.05;;;4.55;;
74612;SDS011;63119;51.788;8.824;2023-03-01T14:59:48;8.80;;;4.60;;
74612;SDS011;63119;51.788;8.824;2023-03-01T15:02:18;8.35;;;4.50;;
74612;SDS011;63119;51.788;8.824;2023-03-01T15:04:46;8.82;;;4.45;;
74612;SDS011;63119;51.788;8.824;2023-03-01T15:07:16;8.65;;;4.50;;
74612;SDS011;63119;51.788;8.824;2023-03-01T15:09:42;6.18;;;4.20;;
74612;SDS011;63119;51.788;8.824;2023-03-01T15:14:57;7.43;;;4.30;;
74612;SDS011;63119;51.788;8.824;2023-03-01T15:17:33;8.27;;;4.28;;
74612;SDS011;63119;51.788;8.824;2023-03-01T15:20:01;8.00;;;3.95;;
74612;SDS011;63119;51.788;8.824;2023-03-01T15:22:29;9.75;;;4.03;;
74612;SDS011;63119;51.788;8.824;2023-03-01T15:24:54;7.35;;;3.95;;
74612;SDS011;63119;51.788;8.824;2023-03-01T15:27:21;9.00;;;4.15;;
74612;SDS011;63119;51.788;8.824;2023-03-01T15:29:49;7.63;;;3.78;;
74612;SDS011;63119;51.788;8.824;2023-03-01T15:32:27;9.90;;;5.20;;
74612;SDS011;63119;51.788;8.824;2023-03-01T15:34:54;8.68;;;4.50;;
74612;SDS011;63119;51.788;8.824;2023-03-01T15:37:35;7.07;;;4.20;;
74612;SDS011;63119;51.788;8.824;2023-03-01T15:40:02;11.57;;;3.97;;
74612;SDS011;63119;51.788;8.824;2023-03-01T15:45:19;6.10;;;3.90;;
74612;SDS011;63119;51.788;8.824;2023-03-01T15:47:49;6.70;;;4.07;;
74612;SDS011;63119;51.788;8.824;2023-03-01T15:50:24;7.30;;;4.25;;
74612;SDS011;63119;51.788;8.824;2023-03-01T15:52:55;8.05;;;4.25;;
74612;SDS011;63119;51.788;8.824;2023-03-01T15:55:26;7.60;;;4.00;;
74612;SDS011;63119;51.788;8.824;2023-03-01T15:58:05;12.48;;;3.83;;
74612;SDS011;63119;51.788;8.824;2023-03-01T16:00:34;7.47;;;4.07;;
74612;SDS011;63119;51.788;8.824;2023-03-01T16:02:59;6.27;;;4.27;;
74612;SDS011;63119;51.788;8.824;2023-03-01T16:05:29;6.20;;;3.60;;
74612;SDS011;63119;51.788;8.824;2023-03-01T16:07:55;7.72;;;4.00;;
74612;SDS011;63119;51.788;8.824;2023-03-01T16:10:21;7.03;;;4.37;;
74612;SDS011;63119;51.788;8.824;2023-03-01T16:12:47;8.13;;;3.90;;
74612;SDS011;63119;51.788;8.824;2023-03-01T16:15:17;7.50;;;4.25;;
74612;SDS011;63119;51.788;8.824;2023-03-01T16:17:45;8.10;;;3.53;;
74612;SDS011;63119;51.788;8.824;2023-03-01T16:20:10;9.65;;;3.97;;
74612;SDS011;63119;51.788;8.824;2023-03-01T16:22:36;6.13;;;3.10;;
74612;SDS011;63119;51.788;8.824;2023-03-01T16:25:01;6.43;;;3.43;;
74612;SDS011;63119;51.788;8.824;2023-03-01T16:27:28;7.28;;;3.10;;
74612;SDS011;63119;51.788;8.824;2023-03-01T16:29:53;6.45;;;3.42;;
74612;SDS011;63119;51.788;8.824;2023-03-01T16:32:19;7.70;;;3.47;;
74612;SDS011;63119;51.788;8.824;2023-03-01T16:34:44;6.97;;;3.50;;
74612;SDS011;63119;51.788;8.824;2023-03-01T16:37:09;5.47;;;3.03;;
74612;SDS011;63119;51.788;8.824;2023-03-01T16:39:37;5.47;;;3.10;;
74612;SDS011;63119;51.788;8.824;2023-03-01T16:42:03;6.50;;;3.28;;